Parham, Canada
Current Conditions -  °F | °C
As of 5:00 PM on Sunday 23 Nov 2014 (Local Time) from CYGK Reporting Station
Broken Clouds Broken Clouds  
Wind Chill: 42°   Ceiling: 15000
Heat Index: 46°   Visibility: 15mi
Dew Point: 45°   Wind: 8mph
Humidity: 93%   Direction: 160°SSE
Pressure: 29.94"   Gusts: NA
Location:  44.65°N, 76.72°W
Report Text: CYGK 232200Z 16007KT 15SM SCT036 BKN150 08/07 A2994 RMK SC4AC3 SLP142
Loading
Personal Weather Stations






























Interactive Weather Map New forecast layout! Learn more

10-Day Weather Forecast

Advertisements
Track Severe Weather on mobile